Time,TemperatureF,DewpointF,PressureIn,WindDirection,WindDirectionDegrees,WindSpeedMPH,WindSpeedGustMPH,Humidity,HourlyPrecipIn,Conditions,Clouds,dailyrainin,SoftwareType,DateUTC
2013-06-26 09:19:00,68.0,-23.0,27.91,East,90,0.0,0.0,0,0.00,,,0.00,Rainwise IP-100,2013-06-26 13:19:00,
2013-06-26 09:24:00,68.0,-23.0,27.91,East,90,0.0,0.0,0,0.00,,,0.00,Rainwise IP-100,2013-06-26 13:24:00,
2013-06-26 09:29:00,68.0,-23.0,27.91,East,90,0.0,0.0,0,0.00,,,0.00,Rainwise IP-100,2013-06-26 13:29:00,
2013-06-26 09:34:00,68.0,-23.0,27.91,East,90,0.0,0.0,0,0.00,,,0.00,Rainwise IP-100,2013-06-26 13:34:00,
2013-06-26 09:39:00,70.0,-23.0,27.90,East,90,0.0,0.0,0,0.00,,,0.00,Rainwise IP-100,2013-06-26 13:39:00,
2013-06-26 09:44:00,70.0,-23.0,27.90,East,90,0.0,0.0,0,0.00,,,0.00,Rainwise IP-100,2013-06-26 13:44:00,
2013-06-26 09:49:00,70.0,-23.0,27.90,East,90,0.0,0.0,0,0.00,,,0.00,Rainwise IP-100,2013-06-26 13:49:00,
2013-06-26 09:54:00,72.0,-23.0,27.90,ESE,112,0.0,0.0,0,0.00,,,0.00,Rainwise IP-100,2013-06-26 13:54:00,
2013-06-26 09:59:00,72.0,-23.0,27.90,ESE,112,0.0,0.0,0,0.00,,,0.00,Rainwise IP-100,2013-06-26 13:59:00,
2013-06-26 10:04:00,74.0,-23.0,27.89,ESE,112,0.0,0.0,0,0.00,,,0.00,Rainwise IP-100,2013-06-26 14:04:00,
2013-06-26 10:09:00,75.0,-23.0,27.89,ESE,112,0.0,0.0,0,0.00,,,0.00,Rainwise IP-100,2013-06-26 14:09:00,
2013-06-26 10:14:00,76.0,-23.0,27.89,ESE,112,0.0,0.0,0,0.00,,,0.00,Rainwise IP-100,2013-06-26 14:14:00,
2013-06-26 10:19:00,76.0,-23.0,27.89,ESE,112,0.0,0.0,0,0.00,,,0.00,Rainwise IP-100,2013-06-26 14:19:00,
2013-06-26 10:24:00,77.0,-23.0,27.88,SE,135,0.0,0.0,0,0.00,,,0.00,Rainwise IP-100,2013-06-26 14:24:00,
2013-06-26 10:29:00,79.0,40.0,27.87,South,180,0.0,0.0,25,0.06,,,0.01,Rainwise IP-100,2013-06-26 14:29:00,
2013-06-26 10:34:00,81.0,71.0,27.86,ESE,112,0.0,0.0,71,0.06,,,0.01,Rainwise IP-100,2013-06-26 14:34:00,
2013-06-26 10:39:00,81.0,73.0,27.86,ESE,112,0.0,0.0,77,0.00,,,0.01,Rainwise IP-100,2013-06-26 14:39:00,
2013-06-26 10:44:00,82.0,76.3,27.86,ESE,112,0.0,0.0,83,0.00,,,0.01,Rainwise IP-100,2013-06-26 14:44:00,
2013-06-26 10:49:00,82.0,77.7,27.86,SSW,202,0.0,0.0,87,0.00,,,0.01,Rainwise IP-100,2013-06-26 14:49:00,
2013-06-26 10:54:00,83.0,79.0,27.86,WSW,247,0.0,0.0,88,0.00,,,0.01,Rainwise IP-100,2013-06-26 14:54:00,
2013-06-26 10:59:00,83.0,80.0,27.86,West,270,0.0,0.0,90,0.00,,,0.01,Rainwise IP-100,2013-06-26 14:59:00,
2013-06-26 11:04:00,83.0,79.3,27.86,West,270,0.0,0.0,89,0.00,,,0.01,Rainwise IP-100,2013-06-26 15:04:00,
2013-06-26 11:09:00,83.0,80.0,27.86,West,270,0.0,0.0,90,0.00,,,0.01,Rainwise IP-100,2013-06-26 15:09:00,
2013-06-26 11:14:00,84.0,80.5,27.86,SSE,157,0.0,0.0,89,0.00,,,0.01,Rainwise IP-100,2013-06-26 15:14:00,
2013-06-26 11:19:00,85.0,80.8,27.86,SSE,157,0.0,0.0,88,0.00,,,0.01,Rainwise IP-100,2013-06-26 15:19:00,
2013-06-26 11:24:00,85.0,80.8,27.86,SSE,157,0.0,0.0,88,0.00,,,0.01,Rainwise IP-100,2013-06-26 15:24:00,
2013-06-26 11:29:00,85.0,80.8,27.86,SSE,157,0.0,0.0,88,0.00,,,0.01,Rainwise IP-100,2013-06-26 15:29:00,
2013-06-26 11:34:00,85.0,81.3,27.85,SE,135,0.0,0.0,89,0.00,,,0.01,Rainwise IP-100,2013-06-26 15:34:00,
2013-06-26 11:39:00,85.0,81.3,27.85,SE,135,0.0,0.0,89,0.00,,,0.01,Rainwise IP-100,2013-06-26 15:39:00,
2013-06-26 11:44:00,84.0,80.5,27.86,WSW,247,0.0,0.0,89,0.00,,,0.01,Rainwise IP-100,2013-06-26 15:44:00,
2013-06-26 11:49:00,85.0,80.5,27.86,SSW,202,0.0,0.0,87,0.00,,,0.01,Rainwise IP-100,2013-06-26 15:49:00,
2013-06-26 11:54:00,85.0,81.3,27.85,South,180,0.0,0.0,89,0.00,,,0.01,Rainwise IP-100,2013-06-26 15:54:00,
2013-06-26 11:59:00,86.0,82.3,27.85,SSW,202,0.0,0.0,89,0.00,,,0.01,Rainwise IP-100,2013-06-26 15:59:00,
2013-06-26 12:04:00,86.0,80.8,27.85,South,180,0.0,0.0,85,0.00,,,0.01,Rainwise IP-100,2013-06-26 16:04:00,
2013-06-26 12:09:00,85.0,80.5,27.84,West,270,0.0,0.0,87,0.00,,,0.01,Rainwise IP-100,2013-06-26 16:09:00,
2013-06-26 12:14:00,85.0,80.5,27.84,West,270,0.0,0.0,87,0.00,,,0.01,Rainwise IP-100,2013-06-26 16:14:00,
2013-06-26 12:19:00,86.0,81.7,27.85,ESE,112,0.0,0.0,87,0.00,,,0.01,Rainwise IP-100,2013-06-26 16:19:00,
2013-06-26 12:24:00,87.0,82.3,27.84,ESE,112,0.0,0.0,86,0.00,,,0.01,Rainwise IP-100,2013-06-26 16:24:00,
2013-06-26 12:29:00,88.0,82.0,27.84,NNE,22,0.0,0.0,82,0.00,,,0.01,Rainwise IP-100,2013-06-26 16:29:00,
2013-06-26 12:34:00,88.0,82.3,27.84,NNW,337,0.0,0.0,83,0.00,,,0.01,Rainwise IP-100,2013-06-26 16:34:00,
2013-06-26 12:39:00,88.0,82.3,27.84,NNW,337,0.0,0.0,83,0.00,,,0.01,Rainwise IP-100,2013-06-26 16:39:00,
2013-06-26 12:44:00,89.0,80.8,27.83,SE,135,0.0,0.0,77,0.00,,,0.01,Rainwise IP-100,2013-06-26 16:44:00,
2013-06-26 12:49:00,87.0,80.8,27.83,SE,135,0.0,0.0,82,0.00,,,0.01,Rainwise IP-100,2013-06-26 16:49:00,
2013-06-26 12:54:00,85.0,80.8,27.84,SE,135,0.0,0.0,88,0.00,,,0.01,Rainwise IP-100,2013-06-26 16:54:00,
2013-06-26 12:59:00,83.0,80.8,27.84,SE,135,0.0,0.0,93,0.00,,,0.01,Rainwise IP-100,2013-06-26 16:59:00,
2013-06-26 13:04:00,81.0,79.0,27.86,SW,225,3.0,4.0,93,0.00,,,0.01,Rainwise IP-100,2013-06-26 17:04:00,
2013-06-26 13:09:00,79.0,76.8,27.86,East,90,0.0,4.0,93,0.00,,,0.01,Rainwise IP-100,2013-06-26 17:09:00,
2013-06-26 13:14:00,79.0,74.3,27.86,ESE,112,0.0,3.0,86,0.00,,,0.01,Rainwise IP-100,2013-06-26 17:14:00,
2013-06-26 13:19:00,79.0,75.0,27.86,ESE,112,0.0,0.0,88,0.00,,,0.01,Rainwise IP-100,2013-06-26 17:19:00,
2013-06-26 13:24:00,83.0,80.5,27.85,ESE,112,0.0,0.0,92,0.00,,,0.01,Rainwise IP-100,2013-06-26 17:24:00,
2013-06-26 13:29:00,84.0,82.0,27.85,ESE,112,0.0,0.0,93,0.00,,,0.01,Rainwise IP-100,2013-06-26 17:29:00,
2013-06-26 13:35:00,85.0,81.3,27.84,SSW,202,0.0,0.0,89,0.00,,,0.01,Rainwise IP-100,2013-06-26 17:35:00,
2013-06-26 13:40:00,85.0,81.3,27.84,SSW,202,0.0,0.0,89,0.00,,,0.01,Rainwise IP-100,2013-06-26 17:40:00,
2013-06-26 13:45:00,84.0,81.0,27.83,SSW,202,0.0,0.0,91,0.00,,,0.01,Rainwise IP-100,2013-06-26 17:45:00,
2013-06-26 13:50:00,84.0,80.8,27.83,SSW,202,0.0,0.0,90,0.00,,,0.01,Rainwise IP-100,2013-06-26 17:50:00,
2013-06-26 13:55:00,84.0,82.0,27.83,SSW,202,0.0,0.0,93,0.00,,,0.01,Rainwise IP-100,2013-06-26 17:55:00,
2013-06-26 14:00:00,83.0,80.5,27.83,SSW,202,0.0,0.0,92,0.00,,,0.01,Rainwise IP-100,2013-06-26 18:00:00,
2013-06-26 14:05:00,83.0,80.5,27.83,SSW,202,0.0,0.0,92,0.00,,,0.01,Rainwise IP-100,2013-06-26 18:05:00,
2013-06-26 14:10:00,83.0,80.8,27.82,SSW,202,0.0,0.0,93,0.00,,,0.01,Rainwise IP-100,2013-06-26 18:10:00,
2013-06-26 14:15:00,84.0,82.3,27.82,SSW,202,0.0,0.0,94,0.00,,,0.01,Rainwise IP-100,2013-06-26 18:15:00,
2013-06-26 14:20:00,84.0,82.3,27.82,SSW,202,0.0,0.0,94,0.00,,,0.01,Rainwise IP-100,2013-06-26 18:20:00,
2013-06-26 14:25:00,86.0,82.8,27.80,SE,135,0.0,0.0,90,0.00,,,0.01,Rainwise IP-100,2013-06-26 18:25:00,
2013-06-26 14:30:00,86.0,81.3,27.80,SSW,202,0.0,0.0,86,0.00,,,0.01,Rainwise IP-100,2013-06-26 18:30:00,
2013-06-26 14:35:00,85.0,81.7,27.82,East,90,0.0,0.0,90,0.00,,,0.01,Rainwise IP-100,2013-06-26 18:35:00,
2013-06-26 14:40:00,85.0,82.8,27.82,East,90,0.0,0.0,93,0.00,,,0.01,Rainwise IP-100,2013-06-26 18:40:00,
2013-06-26 14:45:00,86.0,83.5,27.80,North,360,0.0,0.0,93,0.00,,,0.01,Rainwise IP-100,2013-06-26 18:45:00,
2013-06-26 14:50:00,87.0,83.3,27.80,North,360,0.0,0.0,89,0.00,,,0.01,Rainwise IP-100,2013-06-26 18:50:00,
2013-06-26 14:55:00,88.0,82.3,27.80,NNE,22,0.0,0.0,83,0.00,,,0.01,Rainwise IP-100,2013-06-26 18:55:00,
2013-06-26 15:00:00,88.0,81.7,27.80,NNE,22,0.0,0.0,81,0.00,,,0.01,Rainwise IP-100,2013-06-26 19:00:00,
2013-06-26 15:05:00,88.0,82.0,27.79,NNE,22,0.0,0.0,82,0.00,,,0.01,Rainwise IP-100,2013-06-26 19:05:00,
2013-06-26 15:10:00,88.0,82.3,27.79,NE,45,0.0,0.0,83,0.00,,,0.01,Rainwise IP-100,2013-06-26 19:10:00,
2013-06-26 15:15:00,88.0,82.3,27.79,NE,45,0.0,0.0,83,0.00,,,0.01,Rainwise IP-100,2013-06-26 19:15:00,
2013-06-26 15:20:00,88.0,81.0,27.79,SW,225,0.0,0.0,80,0.00,,,0.01,Rainwise IP-100,2013-06-26 19:20:00,
2013-06-26 15:25:00,88.0,81.0,27.79,SW,225,0.0,0.0,80,0.00,,,0.01,Rainwise IP-100,2013-06-26 19:25:00,
2013-06-26 15:30:00,85.0,80.8,27.79,SSW,202,0.0,0.0,88,0.00,,,0.01,Rainwise IP-100,2013-06-26 19:30:00,
2013-06-26 15:35:00,85.0,80.8,27.79,SSW,202,0.0,0.0,88,0.00,,,0.01,Rainwise IP-100,2013-06-26 19:35:00,
2013-06-26 15:40:00,85.0,80.8,27.79,SSW,202,0.0,0.0,88,0.00,,,0.01,Rainwise IP-100,2013-06-26 19:40:00,
2013-06-26 15:45:00,85.0,80.8,27.79,SSW,202,0.0,0.0,88,0.00,,,0.01,Rainwise IP-100,2013-06-26 19:45:00,
2013-06-26 15:50:00,84.0,82.3,27.79,South,180,0.0,0.0,94,0.00,,,0.01,Rainwise IP-100,2013-06-26 19:50:00,
2013-06-26 15:55:00,84.0,82.3,27.79,South,180,0.0,0.0,94,0.00,,,0.01,Rainwise IP-100,2013-06-26 19:55:00,
2013-06-26 16:00:00,84.0,82.3,27.79,South,180,0.0,0.0,94,0.00,,,0.01,Rainwise IP-100,2013-06-26 20:00:00,
2013-06-26 16:05:00,84.0,82.3,27.79,South,180,0.0,0.0,94,0.00,,,0.01,Rainwise IP-100,2013-06-26 20:05:00,
2013-06-26 16:10:00,84.0,82.3,27.79,South,180,0.0,0.0,94,0.00,,,0.01,Rainwise IP-100,2013-06-26 20:10:00,
2013-06-26 16:15:00,84.0,82.3,27.78,NE,45,0.0,0.0,94,0.00,,,0.01,Rainwise IP-100,2013-06-26 20:15:00,
2013-06-26 16:20:00,83.0,81.3,27.78,NE,45,0.0,0.0,95,0.00,,,0.01,Rainwise IP-100,2013-06-26 20:20:00,
2013-06-26 16:25:00,83.0,81.3,27.78,NE,45,0.0,0.0,95,0.00,,,0.01,Rainwise IP-100,2013-06-26 20:25:00,
2013-06-26 16:30:00,82.0,80.5,27.78,SSE,157,0.0,0.0,95,0.00,,,0.01,Rainwise IP-100,2013-06-26 20:30:00,
2013-06-26 16:35:00,81.0,77.7,27.79,SSE,157,0.0,0.0,90,0.00,,,0.01,Rainwise IP-100,2013-06-26 20:35:00,
2013-06-26 16:40:00,80.0,66.0,27.79,SSE,157,0.0,0.0,62,0.00,,,0.01,Rainwise IP-100,2013-06-26 20:40:00,
2013-06-26 16:45:00,76.0,-23.0,27.82,WNW,292,3.0,5.0,0,1.68,,,0.29,Rainwise IP-100,2013-06-26 20:45:00,
2013-06-26 16:50:00,73.0,-23.0,27.82,West,270,0.0,4.0,0,1.98,,,0.34,Rainwise IP-100,2013-06-26 20:50:00,
2013-06-26 16:55:00,70.0,-23.0,27.85,WNW,292,0.0,3.0,0,0.72,,,0.41,Rainwise IP-100,2013-06-26 20:55:00,
2013-06-26 17:00:00,69.0,-23.0,27.85,ESE,112,0.0,2.0,0,0.54,,,0.43,Rainwise IP-100,2013-06-26 21:00:00,
2013-06-26 17:05:00,68.0,-23.0,27.83,East,90,0.0,0.0,0,0.12,,,0.43,Rainwise IP-100,2013-06-26 21:05:00,
2013-06-26 17:10:00,68.0,-23.0,27.83,East,90,0.0,0.0,0,0.00,,,0.43,Rainwise IP-100,2013-06-26 21:10:00,
2013-06-26 17:15:00,68.0,-23.0,27.83,NNE,22,0.0,0.0,0,0.06,,,0.44,Rainwise IP-100,2013-06-26 21:15:00,
2013-06-26 17:20:00,68.0,-23.0,27.83,NNE,22,0.0,0.0,0,0.06,,,0.44,Rainwise IP-100,2013-06-26 21:20:00,
2013-06-26 17:25:00,68.0,-23.0,27.81,NNE,22,0.0,0.0,0,0.00,,,0.44,Rainwise IP-100,2013-06-26 21:25:00,
2013-06-26 17:30:00,69.0,-23.0,27.81,NNE,22,0.0,0.0,0,0.00,,,0.44,Rainwise IP-100,2013-06-26 21:30:00,
2013-06-26 17:35:00,69.0,-23.0,27.81,NNE,22,0.0,0.0,0,0.00,,,0.44,Rainwise IP-100,2013-06-26 21:35:00,
2013-06-26 17:40:00,69.0,-23.0,27.81,NNE,22,0.0,0.0,0,0.00,,,0.44,Rainwise IP-100,2013-06-26 21:40:00,
2013-06-26 17:45:00,69.0,-23.0,27.82,NNE,22,0.0,0.0,0,0.00,,,0.44,Rainwise IP-100,2013-06-26 21:45:00,
2013-06-26 17:50:00,69.0,-23.0,27.82,NNE,22,0.0,0.0,0,0.00,,,0.44,Rainwise IP-100,2013-06-26 21:50:00,
2013-06-26 17:55:00,69.0,-23.0,27.81,NNE,22,0.0,0.0,0,0.00,,,0.44,Rainwise IP-100,2013-06-26 21:55:00,
2013-06-26 18:00:00,70.0,-23.0,27.81,NNE,22,0.0,0.0,0,0.00,,,0.44,Rainwise IP-100,2013-06-26 22:00:00,
2013-06-26 18:05:00,70.0,-23.0,27.80,NNE,22,0.0,0.0,0,0.00,,,0.44,Rainwise IP-100,2013-06-26 22:05:00,
2013-06-26 18:10:00,70.0,-23.0,27.80,NNE,22,0.0,0.0,0,0.00,,,0.44,Rainwise IP-100,2013-06-26 22:10:00,
2013-06-26 18:15:00,70.0,-23.0,27.80,NNE,22,0.0,0.0,0,0.00,,,0.44,Rainwise IP-100,2013-06-26 22:15:00,
2013-06-26 18:20:00,71.0,-23.0,27.80,NNE,22,0.0,0.0,0,0.00,,,0.44,Rainwise IP-100,2013-06-26 22:20:00,
2013-06-26 18:25:00,71.0,-23.0,27.80,NNE,22,0.0,0.0,0,0.00,,,0.44,Rainwise IP-100,2013-06-26 22:25:00,
2013-06-26 18:30:00,71.0,-23.0,27.80,NNE,22,0.0,0.0,0,0.00,,,0.44,Rainwise IP-100,2013-06-26 22:30:00,
2013-06-26 18:35:00,71.0,-23.0,27.81,NNE,22,0.0,0.0,0,0.00,,,0.44,Rainwise IP-100,2013-06-26 22:35:00,
2013-06-26 18:40:00,71.0,-23.0,27.81,NNE,22,0.0,0.0,0,0.00,,,0.44,Rainwise IP-100,2013-06-26 22:40:00,
2013-06-26 18:45:00,71.0,-23.0,27.81,NNE,22,0.0,0.0,0,0.00,,,0.44,Rainwise IP-100,2013-06-26 22:45:00,
2013-06-26 18:50:00,71.0,-23.0,27.81,NNE,22,0.0,3.0,0,0.00,,,0.44,Rainwise IP-100,2013-06-26 22:50:00,
2013-06-26 18:55:00,71.0,-23.0,27.81,NNE,22,0.0,0.0,0,0.00,,,0.44,Rainwise IP-100,2013-06-26 22:55:00,
2013-06-26 19:00:00,71.0,-23.0,27.81,NNE,22,0.0,0.0,0,0.00,,,0.44,Rainwise IP-100,2013-06-26 23:00:00,
2013-06-26 19:05:00,71.0,-23.0,27.82,NNE,22,0.0,0.0,0,0.00,,,0.44,Rainwise IP-100,2013-06-26 23:05:00,
2013-06-26 19:10:00,71.0,-23.0,27.82,NNE,22,0.0,0.0,0,0.00,,,0.44,Rainwise IP-100,2013-06-26 23:10:00,
2013-06-26 19:15:00,71.0,-23.0,27.81,NNE,22,0.0,0.0,0,0.00,,,0.44,Rainwise IP-100,2013-06-26 23:15:00,
2013-06-26 19:20:00,70.0,-23.0,27.81,NNE,22,0.0,0.0,0,0.00,,,0.44,Rainwise IP-100,2013-06-26 23:20:00,
2013-06-26 19:25:00,70.0,-23.0,27.80,NNE,22,0.0,0.0,0,0.00,,,0.44,Rainwise IP-100,2013-06-26 23:25:00,
2013-06-26 19:30:00,70.0,-23.0,27.80,NNE,22,0.0,0.0,0,0.00,,,0.44,Rainwise IP-100,2013-06-26 23:30:00,
2013-06-26 19:35:00,70.0,-23.0,27.80,NNE,22,0.0,0.0,0,0.00,,,0.44,Rainwise IP-100,2013-06-26 23:35:00,
2013-06-26 19:40:00,70.0,-23.0,27.80,NNE,22,0.0,0.0,0,0.00,,,0.44,Rainwise IP-100,2013-06-26 23:40:00,
2013-06-26 19:45:00,70.0,-23.0,27.81,NNE,22,0.0,0.0,0,0.00,,,0.44,Rainwise IP-100,2013-06-26 23:45:00,
2013-06-26 19:50:00,70.0,-23.0,27.81,NNE,22,0.0,0.0,0,0.00,,,0.44,Rainwise IP-100,2013-06-26 23:50:00,
2013-06-26 19:55:00,70.0,-23.0,27.81,NNE,22,0.0,0.0,0,0.00,,,0.44,Rainwise IP-100,2013-06-26 23:55:00,
2013-06-26 20:00:00,70.0,-23.0,27.81,NNE,22,0.0,0.0,0,0.00,,,0.44,Rainwise IP-100,2013-06-27 00:00:00,
2013-06-26 20:05:00,70.0,-23.0,27.81,NNE,22,0.0,0.0,0,0.00,,,0.44,Rainwise IP-100,2013-06-27 00:05:00,
2013-06-26 20:10:00,70.0,-23.0,27.81,NNE,22,0.0,0.0,0,0.00,,,0.44,Rainwise IP-100,2013-06-27 00:10:00,
2013-06-26 20:15:00,70.0,-23.0,27.80,NNE,22,0.0,0.0,0,0.00,,,0.44,Rainwise IP-100,2013-06-27 00:15:00,
2013-06-26 20:20:00,70.0,-23.0,27.80,NNE,22,0.0,0.0,0,0.00,,,0.44,Rainwise IP-100,2013-06-27 00:20:00,
2013-06-26 20:25:00,70.0,-23.0,27.79,NNE,22,0.0,0.0,0,0.00,,,0.44,Rainwise IP-100,2013-06-27 00:25:00,
2013-06-26 20:30:00,70.0,-23.0,27.79,NNE,22,0.0,0.0,0,0.00,,,0.44,Rainwise IP-100,2013-06-27 00:30:00,
2013-06-26 20:35:00,70.0,-23.0,27.80,NNE,22,0.0,0.0,0,0.00,,,0.44,Rainwise IP-100,2013-06-27 00:35:00,
2013-06-26 20:40:00,70.0,-23.0,27.80,NNE,22,0.0,0.0,0,0.00,,,0.44,Rainwise IP-100,2013-06-27 00:40:00,
2013-06-26 20:45:00,69.0,-23.0,27.80,NNE,22,0.0,0.0,0,0.00,,,0.44,Rainwise IP-100,2013-06-27 00:45:00,
2013-06-26 20:50:00,69.0,-23.0,27.80,NNE,22,0.0,0.0,0,0.00,,,0.44,Rainwise IP-100,2013-06-27 00:50:00,
2013-06-26 20:53:00,69.0,-23.0,27.80,NNE,22,0.0,0.0,0,0.00,,,0.44,Rainwise IP-100,2013-06-27 00:53:00,
2013-06-26 20:58:00,69.0,-23.0,27.80,NNE,22,0.0,0.0,0,0.00,,,0.44,Rainwise IP-100,2013-06-27 00:58:00,
2013-06-26 21:03:00,69.0,-23.0,27.80,NNE,22,0.0,0.0,0,0.00,,,0.44,Rainwise IP-100,2013-06-27 01:03:00,
2013-06-26 21:08:00,68.0,-23.0,27.80,NNE,22,0.0,0.0,0,0.00,,,0.44,Rainwise IP-100,2013-06-27 01:08:00,
2013-06-26 21:13:00,68.0,-23.0,27.80,NNE,22,0.0,0.0,0,0.00,,,0.44,Rainwise IP-100,2013-06-27 01:13:00,
2013-06-26 21:18:00,68.0,-23.0,27.80,NNE,22,0.0,0.0,0,0.00,,,0.44,Rainwise IP-100,2013-06-27 01:18:00,
2013-06-26 21:23:00,68.0,-23.0,27.80,NNE,22,0.0,0.0,0,0.00,,,0.44,Rainwise IP-100,2013-06-27 01:23:00,
2013-06-26 21:28:00,68.0,-23.0,27.80,NNE,22,0.0,0.0,0,0.00,,,0.44,Rainwise IP-100,2013-06-27 01:28:00,
2013-06-26 21:33:00,68.0,-23.0,27.80,NNE,22,0.0,0.0,0,0.00,,,0.44,Rainwise IP-100,2013-06-27 01:33:00,
2013-06-26 21:38:00,68.0,-23.0,27.80,NNE,22,0.0,0.0,0,0.00,,,0.44,Rainwise IP-100,2013-06-27 01:38:00,
2013-06-26 21:43:00,68.0,-23.0,27.81,NNE,22,0.0,0.0,0,0.00,,,0.44,Rainwise IP-100,2013-06-27 01:43:00,
2013-06-26 21:48:00,68.0,-23.0,27.81,NNE,22,0.0,0.0,0,0.00,,,0.44,Rainwise IP-100,2013-06-27 01:48:00,
2013-06-26 21:53:00,68.0,-23.0,27.81,NNE,22,0.0,0.0,0,0.00,,,0.44,Rainwise IP-100,2013-06-27 01:53:00,
2013-06-26 21:58:00,68.0,-23.0,27.81,NNE,22,0.0,0.0,0,0.00,,,0.44,Rainwise IP-100,2013-06-27 01:58:00,
2013-06-26 22:04:00,68.0,-23.0,27.81,NNE,22,0.0,0.0,0,0.00,,,0.44,Rainwise IP-100,2013-06-27 02:04:00,
2013-06-26 22:07:00,68.0,-23.0,27.81,NNE,22,0.0,0.0,0,0.00,,,0.44,Rainwise IP-100,2013-06-27 02:07:00,